sensor_id;sensor_type;location;lat;lon;timestamp;pressure;altitude;pressure_sealevel;temperature;humidity
85928;BME280;76685;49.582;18.342;2024-03-22T00:01:59;97484.95;;;9.00;77.86
85928;BME280;76685;49.582;18.342;2024-03-22T00:04:29;97486.77;;;9.02;77.99
85928;BME280;76685;49.582;18.342;2024-03-22T00:06:56;97491.27;;;9.05;78.21
85928;BME280;76685;49.582;18.342;2024-03-22T00:09:23;97492.58;;;9.08;78.30
85928;BME280;76685;49.582;18.342;2024-03-22T00:11:51;97490.21;;;9.11;78.27
85928;BME280;76685;49.582;18.342;2024-03-22T00:14:18;97492.08;;;9.18;78.32
85928;BME280;76685;49.582;18.342;2024-03-22T00:16:45;97489.88;;;9.24;78.16
85928;BME280;76685;49.582;18.342;2024-03-22T00:19:12;97485.61;;;9.30;78.50
85928;BME280;76685;49.582;18.342;2024-03-22T00:21:39;97482.17;;;9.37;78.11
85928;BME280;76685;49.582;18.342;2024-03-22T00:24:06;97480.80;;;9.44;78.06
85928;BME280;76685;49.582;18.342;2024-03-22T00:26:33;97472.64;;;9.52;77.79
85928;BME280;76685;49.582;18.342;2024-03-22T00:29:00;97470.27;;;9.62;77.38
85928;BME280;76685;49.582;18.342;2024-03-22T00:31:28;97475.52;;;9.73;77.18
85928;BME280;76685;49.582;18.342;2024-03-22T00:33:55;97473.02;;;9.83;77.22
85928;BME280;76685;49.582;18.342;2024-03-22T00:36:23;97475.44;;;9.88;76.77
85928;BME280;76685;49.582;18.342;2024-03-22T00:38:50;97472.92;;;9.94;76.60
85928;BME280;76685;49.582;18.342;2024-03-22T00:41:17;97470.15;;;10.01;76.47
85928;BME280;76685;49.582;18.342;2024-03-22T00:43:44;97473.86;;;10.06;76.49
85928;BME280;76685;49.582;18.342;2024-03-22T00:46:10;97473.58;;;10.10;76.09
85928;BME280;76685;49.582;18.342;2024-03-22T00:48:57;97473.89;;;10.14;76.03
85928;BME280;76685;49.582;18.342;2024-03-22T00:51:25;97475.91;;;10.15;75.85
85928;BME280;76685;49.582;18.342;2024-03-22T00:53:53;97475.46;;;10.16;75.88
85928;BME280;76685;49.582;18.342;2024-03-22T00:56:20;97474.92;;;10.18;75.80
85928;BME280;76685;49.582;18.342;2024-03-22T00:58:47;97475.60;;;10.20;75.66
85928;BME280;76685;49.582;18.342;2024-03-22T01:01:14;97471.21;;;10.23;75.78
85928;BME280;76685;49.582;18.342;2024-03-22T01:03:41;97470.48;;;10.25;75.64
85928;BME280;76685;49.582;18.342;2024-03-22T01:06:08;97472.35;;;10.26;75.52
85928;BME280;76685;49.582;18.342;2024-03-22T01:08:35;97473.02;;;10.28;75.57
85928;BME280;76685;49.582;18.342;2024-03-22T01:11:03;97478.39;;;10.30;75.63
85928;BME280;76685;49.582;18.342;2024-03-22T01:13:30;97477.90;;;10.30;75.30
85928;BME280;76685;49.582;18.342;2024-03-22T01:15:57;97475.13;;;10.27;75.61
85928;BME280;76685;49.582;18.342;2024-03-22T01:18:24;97473.77;;;10.26;75.62
85928;BME280;76685;49.582;18.342;2024-03-22T01:20:51;97474.69;;;10.25;75.66
85928;BME280;76685;49.582;18.342;2024-03-22T01:23:18;97470.73;;;10.25;75.66
85928;BME280;76685;49.582;18.342;2024-03-22T01:25:45;97471.67;;;10.27;75.62
85928;BME280;76685;49.582;18.342;2024-03-22T01:28:12;97474.30;;;10.28;75.69
85928;BME280;76685;49.582;18.342;2024-03-22T01:30:39;97472.55;;;10.26;75.87
85928;BME280;76685;49.582;18.342;2024-03-22T01:33:06;97470.11;;;10.25;75.73
85928;BME280;76685;49.582;18.342;2024-03-22T01:35:33;97465.23;;;10.25;75.75
85928;BME280;76685;49.582;18.342;2024-03-22T01:38:00;97463.23;;;10.25;75.88
85928;BME280;76685;49.582;18.342;2024-03-22T01:40:27;97463.11;;;10.25;75.79
85928;BME280;76685;49.582;18.342;2024-03-22T01:42:57;97463.47;;;10.22;76.11
85928;BME280;76685;49.582;18.342;2024-03-22T01:45:24;97459.02;;;10.18;75.87
85928;BME280;76685;49.582;18.342;2024-03-22T01:47:52;97461.75;;;10.18;76.11
85928;BME280;76685;49.582;18.342;2024-03-22T01:50:21;97456.48;;;10.16;76.12
85928;BME280;76685;49.582;18.342;2024-03-22T01:52:48;97460.08;;;10.17;75.97
85928;BME280;76685;49.582;18.342;2024-03-22T01:55:16;97463.16;;;10.18;76.10
85928;BME280;76685;49.582;18.342;2024-03-22T01:57:43;97457.94;;;10.16;76.20
85928;BME280;76685;49.582;18.342;2024-03-22T02:00:10;97459.29;;;10.15;76.26
85928;BME280;76685;49.582;18.342;2024-03-22T02:02:38;97459.74;;;10.15;76.23
85928;BME280;76685;49.582;18.342;2024-03-22T02:05:15;97463.11;;;10.12;76.53
85928;BME280;76685;49.582;18.342;2024-03-22T02:07:42;97464.70;;;10.11;76.55
85928;BME280;76685;49.582;18.342;2024-03-22T02:10:10;97462.16;;;10.09;76.38
85928;BME280;76685;49.582;18.342;2024-03-22T02:12:40;97462.95;;;10.10;76.56
85928;BME280;76685;49.582;18.342;2024-03-22T02:15:08;97462.88;;;10.11;76.83
85928;BME280;76685;49.582;18.342;2024-03-22T02:17:35;97462.17;;;10.11;76.78
85928;BME280;76685;49.582;18.342;2024-03-22T02:20:02;97461.67;;;10.12;76.79
85928;BME280;76685;49.582;18.342;2024-03-22T02:22:31;97462.71;;;10.12;76.75
85928;BME280;76685;49.582;18.342;2024-03-22T02:24:58;97459.98;;;10.12;76.61
85928;BME280;76685;49.582;18.342;2024-03-22T02:27:25;97459.00;;;10.11;76.85
85928;BME280;76685;49.582;18.342;2024-03-22T02:29:53;97459.19;;;10.08;77.22
85928;BME280;76685;49.582;18.342;2024-03-22T02:32:19;97457.37;;;10.08;77.09
85928;BME280;76685;49.582;18.342;2024-03-22T02:34:46;97458.98;;;10.10;77.05
85928;BME280;76685;49.582;18.342;2024-03-22T02:37:13;97460.72;;;10.11;77.06
85928;BME280;76685;49.582;18.342;2024-03-22T02:39:40;97459.66;;;10.11;77.06
85928;BME280;76685;49.582;18.342;2024-03-22T02:42:07;97461.60;;;10.12;77.18
85928;BME280;76685;49.582;18.342;2024-03-22T02:44:34;97459.48;;;10.14;77.11
85928;BME280;76685;49.582;18.342;2024-03-22T02:47:05;97461.56;;;10.13;77.26
85928;BME280;76685;49.582;18.342;2024-03-22T02:49:32;97463.05;;;10.11;77.07
85928;BME280;76685;49.582;18.342;2024-03-22T02:51:59;97464.29;;;10.11;77.39
85928;BME280;76685;49.582;18.342;2024-03-22T02:54:26;97463.70;;;10.08;77.22
85928;BME280;76685;49.582;18.342;2024-03-22T02:56:52;97463.70;;;10.08;76.98
85928;BME280;76685;49.582;18.342;2024-03-22T02:59:19;97461.59;;;10.11;77.16
85928;BME280;76685;49.582;18.342;2024-03-22T03:01:46;97458.98;;;10.15;77.17
85928;BME280;76685;49.582;18.342;2024-03-22T03:04:13;97458.17;;;10.16;76.92
85928;BME280;76685;49.582;18.342;2024-03-22T03:06:40;97456.11;;;10.15;77.03
85928;BME280;76685;49.582;18.342;2024-03-22T03:09:07;97457.29;;;10.14;76.98
85928;BME280;76685;49.582;18.342;2024-03-22T03:11:35;97455.57;;;10.13;77.09
85928;BME280;76685;49.582;18.342;2024-03-22T03:14:02;97453.67;;;10.11;77.00
85928;BME280;76685;49.582;18.342;2024-03-22T03:16:28;97450.48;;;10.09;77.17
85928;BME280;76685;49.582;18.342;2024-03-22T03:18:56;97452.23;;;10.08;76.99
85928;BME280;76685;49.582;18.342;2024-03-22T03:21:22;97450.66;;;10.09;77.11
85928;BME280;76685;49.582;18.342;2024-03-22T03:23:49;97449.45;;;10.08;76.96
85928;BME280;76685;49.582;18.342;2024-03-22T03:26:16;97450.60;;;10.08;77.05
85928;BME280;76685;49.582;18.342;2024-03-22T03:28:43;97447.25;;;10.07;77.11
85928;BME280;76685;49.582;18.342;2024-03-22T03:31:10;97444.95;;;10.08;76.76
85928;BME280;76685;49.582;18.342;2024-03-22T03:33:37;97444.09;;;10.09;76.84
85928;BME280;76685;49.582;18.342;2024-03-22T03:36:05;97440.36;;;10.10;76.85
85928;BME280;76685;49.582;18.342;2024-03-22T03:38:32;97436.71;;;10.11;76.85
85928;BME280;76685;49.582;18.342;2024-03-22T03:40:59;97432.59;;;10.09;77.10
85928;BME280;76685;49.582;18.342;2024-03-22T03:43:26;97428.43;;;10.06;77.12
85928;BME280;76685;49.582;18.342;2024-03-22T03:45:53;97427.09;;;10.03;77.09
85928;BME280;76685;49.582;18.342;2024-03-22T03:48:21;97423.10;;;10.03;77.20
85928;BME280;76685;49.582;18.342;2024-03-22T03:50:52;97422.75;;;10.05;77.20
85928;BME280;76685;49.582;18.342;2024-03-22T03:53:19;97417.30;;;10.05;77.32
85928;BME280;76685;49.582;18.342;2024-03-22T03:55:47;97414.88;;;10.05;77.32
85928;BME280;76685;49.582;18.342;2024-03-22T03:58:14;97411.92;;;10.03;77.61
85928;BME280;76685;49.582;18.342;2024-03-22T04:00:41;97413.10;;;10.00;77.68
85928;BME280;76685;49.582;18.342;2024-03-22T04:03:08;97412.20;;;9.96;77.64
85928;BME280;76685;49.582;18.342;2024-03-22T04:05:35;97408.11;;;9.94;77.81
85928;BME280;76685;49.582;18.342;2024-03-22T04:08:02;97406.16;;;9.93;77.83
85928;BME280;76685;49.582;18.342;2024-03-22T04:10:29;97406.47;;;9.90;77.94
85928;BME280;76685;49.582;18.342;2024-03-22T04:12:56;97408.55;;;9.88;77.84
85928;BME280;76685;49.582;18.342;2024-03-22T04:15:23;97403.95;;;9.85;78.24
85928;BME280;76685;49.582;18.342;2024-03-22T04:17:50;97405.58;;;9.85;78.05
85928;BME280;76685;49.582;18.342;2024-03-22T04:20:17;97405.55;;;9.84;78.24
85928;BME280;76685;49.582;18.342;2024-03-22T04:22:44;97404.48;;;9.81;78.12
85928;BME280;76685;49.582;18.342;2024-03-22T04:25:11;97404.31;;;9.77;78.09
85928;BME280;76685;49.582;18.342;2024-03-22T04:27:38;97408.94;;;9.75;78.65
85928;BME280;76685;49.582;18.342;2024-03-22T04:30:05;97407.42;;;9.71;78.40
85928;BME280;76685;49.582;18.342;2024-03-22T04:32:32;97405.58;;;9.66;78.56
85928;BME280;76685;49.582;18.342;2024-03-22T04:34:59;97401.44;;;9.61;78.50
85928;BME280;76685;49.582;18.342;2024-03-22T04:37:26;97404.34;;;9.59;78.51
85928;BME280;76685;49.582;18.342;2024-03-22T04:39:53;97408.02;;;9.58;78.56
85928;BME280;76685;49.582;18.342;2024-03-22T04:42:20;97406.99;;;9.55;78.87
85928;BME280;76685;49.582;18.342;2024-03-22T04:44:47;97404.08;;;9.56;78.85
85928;BME280;76685;49.582;18.342;2024-03-22T04:47:13;97405.30;;;9.54;78.69
85928;BME280;76685;49.582;18.342;2024-03-22T04:49:40;97402.65;;;9.55;78.67
85928;BME280;76685;49.582;18.342;2024-03-22T04:52:07;97397.70;;;9.55;78.73
85928;BME280;76685;49.582;18.342;2024-03-22T04:54:34;97395.03;;;9.54;78.79
85928;BME280;76685;49.582;18.342;2024-03-22T04:57:01;97393.73;;;9.55;78.80
85928;BME280;76685;49.582;18.342;2024-03-22T04:59:29;97388.57;;;9.54;78.87
85928;BME280;76685;49.582;18.342;2024-03-22T05:01:56;97391.96;;;9.53;78.82
85928;BME280;76685;49.582;18.342;2024-03-22T05:04:23;97398.33;;;9.49;78.64
85928;BME280;76685;49.582;18.342;2024-03-22T05:06:50;97396.10;;;9.48;78.82
85928;BME280;76685;49.582;18.342;2024-03-22T05:09:17;97396.90;;;9.49;79.13
85928;BME280;76685;49.582;18.342;2024-03-22T05:11:43;97396.73;;;9.51;79.38
85928;BME280;76685;49.582;18.342;2024-03-22T05:14:13;97395.84;;;9.52;79.30
85928;BME280;76685;49.582;18.342;2024-03-22T05:16:40;97396.23;;;9.49;79.01
85928;BME280;76685;49.582;18.342;2024-03-22T05:19:07;97397.02;;;9.45;78.97
85928;BME280;76685;49.582;18.342;2024-03-22T05:21:34;97398.40;;;9.42;79.29
85928;BME280;76685;49.582;18.342;2024-03-22T05:24:01;97395.02;;;9.42;79.61
85928;BME280;76685;49.582;18.342;2024-03-22T05:26:30;97399.28;;;9.44;79.59
85928;BME280;76685;49.582;18.342;2024-03-22T05:29:02;97395.93;;;9.43;79.48
85928;BME280;76685;49.582;18.342;2024-03-22T05:31:30;97390.48;;;9.45;79.41
85928;BME280;76685;49.582;18.342;2024-03-22T05:33:57;97387.14;;;9.48;79.65
85928;BME280;76685;49.582;18.342;2024-03-22T05:36:24;97390.77;;;9.49;79.78
85928;BME280;76685;49.582;18.342;2024-03-22T05:38:51;97393.11;;;9.49;79.65
85928;BME280;76685;49.582;18.342;2024-03-22T05:41:18;97396.19;;;9.51;79.39
85928;BME280;76685;49.582;18.342;2024-03-22T05:43:45;97392.88;;;9.49;79.42
85928;BME280;76685;49.582;18.342;2024-03-22T05:46:12;97394.75;;;9.47;79.40
85928;BME280;76685;49.582;18.342;2024-03-22T05:48:39;97393.94;;;9.45;79.44
85928;BME280;76685;49.582;18.342;2024-03-22T05:51:06;97391.27;;;9.43;79.42
85928;BME280;76685;49.582;18.342;2024-03-22T05:53:33;97389.34;;;9.44;79.46
85928;BME280;76685;49.582;18.342;2024-03-22T05:56:00;97393.16;;;9.47;79.57
85928;BME280;76685;49.582;18.342;2024-03-22T05:58:27;97390.23;;;9.51;79.54
85928;BME280;76685;49.582;18.342;2024-03-22T06:00:54;97397.10;;;9.54;79.68
85928;BME280;76685;49.582;18.342;2024-03-22T06:03:22;97396.32;;;9.53;79.76
85928;BME280;76685;49.582;18.342;2024-03-22T06:05:49;97393.61;;;9.52;79.87
85928;BME280;76685;49.582;18.342;2024-03-22T06:08:16;97403.28;;;9.50;79.95
85928;BME280;76685;49.582;18.342;2024-03-22T06:10:45;97421.30;;;9.42;80.00
85928;BME280;76685;49.582;18.342;2024-03-22T06:13:12;97412.39;;;9.38;79.75
85928;BME280;76685;49.582;18.342;2024-03-22T06:15:43;97408.60;;;9.39;79.47
85928;BME280;76685;49.582;18.342;2024-03-22T06:18:12;97408.42;;;9.40;79.20
85928;BME280;76685;49.582;18.342;2024-03-22T06:20:39;97404.53;;;9.42;79.13
85928;BME280;76685;49.582;18.342;2024-03-22T06:23:07;97400.63;;;9.48;79.12
85928;BME280;76685;49.582;18.342;2024-03-22T06:25:35;97394.92;;;9.54;78.99
85928;BME280;76685;49.582;18.342;2024-03-22T06:28:02;97401.36;;;9.59;78.99
85928;BME280;76685;49.582;18.342;2024-03-22T06:30:29;97400.58;;;9.64;79.06
85928;BME280;76685;49.582;18.342;2024-03-22T06:32:56;97403.64;;;9.69;78.84
85928;BME280;76685;49.582;18.342;2024-03-22T06:35:23;97402.60;;;9.73;78.79
85928;BME280;76685;49.582;18.342;2024-03-22T06:37:50;97398.86;;;9.77;78.55
85928;BME280;76685;49.582;18.342;2024-03-22T06:40:17;97399.76;;;9.80;77.78
85928;BME280;76685;49.582;18.342;2024-03-22T06:42:44;97400.45;;;9.81;77.20
85928;BME280;76685;49.582;18.342;2024-03-22T06:45:11;97400.92;;;9.83;76.81
85928;BME280;76685;49.582;18.342;2024-03-22T06:47:38;97393.66;;;9.88;77.26
85928;BME280;76685;49.582;18.342;2024-03-22T06:50:05;97389.33;;;9.93;76.58
85928;BME280;76685;49.582;18.342;2024-03-22T06:52:32;97382.77;;;9.95;76.48
85928;BME280;76685;49.582;18.342;2024-03-22T06:54:59;97387.98;;;9.97;76.06
85928;BME280;76685;49.582;18.342;2024-03-22T06:57:29;97387.12;;;9.96;76.05
85928;BME280;76685;49.582;18.342;2024-03-22T06:59:56;97393.48;;;9.98;75.93
85928;BME280;76685;49.582;18.342;2024-03-22T07:02:22;97394.33;;;9.98;75.83
85928;BME280;76685;49.582;18.342;2024-03-22T07:04:50;97392.63;;;9.99;75.04
85928;BME280;76685;49.582;18.342;2024-03-22T07:07:17;97395.89;;;9.95;74.86
85928;BME280;76685;49.582;18.342;2024-03-22T07:09:44;97399.73;;;9.90;74.46
85928;BME280;76685;49.582;18.342;2024-03-22T07:12:11;97395.29;;;9.87;74.51
85928;BME280;76685;49.582;18.342;2024-03-22T07:14:38;97396.33;;;9.81;74.41
85928;BME280;76685;49.582;18.342;2024-03-22T07:17:05;97398.85;;;9.75;74.55
85928;BME280;76685;49.582;18.342;2024-03-22T07:19:32;97400.60;;;9.67;74.18
85928;BME280;76685;49.582;18.342;2024-03-22T07:22:01;97399.16;;;9.59;74.27
85928;BME280;76685;49.582;18.342;2024-03-22T07:24:29;97403.78;;;9.55;74.13
85928;BME280;76685;49.582;18.342;2024-03-22T07:26:56;97402.06;;;9.53;74.11
85928;BME280;76685;49.582;18.342;2024-03-22T07:29:23;97403.10;;;9.55;74.73
85928;BME280;76685;49.582;18.342;2024-03-22T07:31:50;97394.48;;;9.58;73.67
85928;BME280;76685;49.582;18.342;2024-03-22T07:34:17;97396.34;;;9.57;72.30
85928;BME280;76685;49.582;18.342;2024-03-22T07:36:44;97395.27;;;9.58;71.88
85928;BME280;76685;49.582;18.342;2024-03-22T07:39:11;97396.87;;;9.62;72.30
85928;BME280;76685;49.582;18.342;2024-03-22T07:41:38;97396.29;;;9.70;72.45
85928;BME280;76685;49.582;18.342;2024-03-22T07:44:05;97397.69;;;9.79;71.32
85928;BME280;76685;49.582;18.342;2024-03-22T07:46:32;97398.75;;;9.82;71.12
85928;BME280;76685;49.582;18.342;2024-03-22T07:48:59;97395.64;;;9.85;70.77
85928;BME280;76685;49.582;18.342;2024-03-22T07:51:28;97398.73;;;9.88;70.94
85928;BME280;76685;49.582;18.342;2024-03-22T07:53:55;97391.96;;;9.89;70.50
85928;BME280;76685;49.582;18.342;2024-03-22T07:56:22;97393.75;;;9.88;70.01
85928;BME280;76685;49.582;18.342;2024-03-22T07:58:49;97391.27;;;9.86;69.94
85928;BME280;76685;49.582;18.342;2024-03-22T08:01:16;97386.33;;;9.86;69.70
85928;BME280;76685;49.582;18.342;2024-03-22T08:03:44;97379.38;;;9.88;69.30
85928;BME280;76685;49.582;18.342;2024-03-22T08:06:11;97375.93;;;9.95;69.47
85928;BME280;76685;49.582;18.342;2024-03-22T08:08:39;97372.99;;;10.06;69.24
85928;BME280;76685;49.582;18.342;2024-03-22T08:11:06;97371.19;;;10.14;69.15
85928;BME280;76685;49.582;18.342;2024-03-22T08:13:33;97364.77;;;10.21;69.24
85928;BME280;76685;49.582;18.342;2024-03-22T08:16:00;97362.50;;;10.24;66.70
85928;BME280;76685;49.582;18.342;2024-03-22T08:18:28;97362.07;;;10.27;67.48
85928;BME280;76685;49.582;18.342;2024-03-22T08:20:56;97360.67;;;10.22;66.31
85928;BME280;76685;49.582;18.342;2024-03-22T08:23:23;97365.90;;;10.11;66.67
85928;BME280;76685;49.582;18.342;2024-03-22T08:25:50;97368.06;;;10.03;67.06
85928;BME280;76685;49.582;18.342;2024-03-22T08:28:17;97369.00;;;10.00;67.73
85928;BME280;76685;49.582;18.342;2024-03-22T08:30:44;97373.45;;;9.94;66.98
85928;BME280;76685;49.582;18.342;2024-03-22T08:33:11;97374.26;;;9.89;67.50
85928;BME280;76685;49.582;18.342;2024-03-22T08:35:39;97376.54;;;9.88;67.50
85928;BME280;76685;49.582;18.342;2024-03-22T08:38:06;97370.46;;;9.91;66.99
85928;BME280;76685;49.582;18.342;2024-03-22T08:40:41;97374.90;;;9.97;66.08
85928;BME280;76685;49.582;18.342;2024-03-22T08:43:08;97369.63;;;10.02;66.28
85928;BME280;76685;49.582;18.342;2024-03-22T08:45:35;97369.59;;;10.09;66.63
85928;BME280;76685;49.582;18.342;2024-03-22T08:48:02;97370.53;;;10.16;65.95
85928;BME280;76685;49.582;18.342;2024-03-22T08:50:30;97369.34;;;10.22;66.12
85928;BME280;76685;49.582;18.342;2024-03-22T08:52:57;97369.73;;;10.25;65.77
85928;BME280;76685;49.582;18.342;2024-03-22T08:55:25;97370.73;;;10.23;65.59
85928;BME280;76685;49.582;18.342;2024-03-22T08:57:52;97367.89;;;10.24;65.58
85928;BME280;76685;49.582;18.342;2024-03-22T09:00:19;97362.25;;;10.26;65.51
85928;BME280;76685;49.582;18.342;2024-03-22T09:02:46;97362.02;;;10.34;65.86
85928;BME280;76685;49.582;18.342;2024-03-22T09:05:14;97363.36;;;10.38;65.75
85928;BME280;76685;49.582;18.342;2024-03-22T09:07:41;97362.39;;;10.40;65.75
85928;BME280;76685;49.582;18.342;2024-03-22T09:10:08;97366.73;;;10.35;64.96
85928;BME280;76685;49.582;18.342;2024-03-22T09:12:35;97369.70;;;10.30;65.10
85928;BME280;76685;49.582;18.342;2024-03-22T09:15:02;97370.17;;;10.26;65.56
85928;BME280;76685;49.582;18.342;2024-03-22T09:17:31;97367.39;;;10.22;65.40
85928;BME280;76685;49.582;18.342;2024-03-22T09:19:58;97363.73;;;10.19;65.74
85928;BME280;76685;49.582;18.342;2024-03-22T09:22:25;97364.70;;;10.19;65.56
85928;BME280;76685;49.582;18.342;2024-03-22T09:24:52;97369.30;;;10.16;65.52
85928;BME280;76685;49.582;18.342;2024-03-22T09:27:19;97372.80;;;10.14;65.34
85928;BME280;76685;49.582;18.342;2024-03-22T09:29:48;97375.33;;;10.12;65.34
85928;BME280;76685;49.582;18.342;2024-03-22T09:32:15;97375.98;;;10.11;65.14
85928;BME280;76685;49.582;18.342;2024-03-22T09:34:42;97374.58;;;10.11;65.57
85928;BME280;76685;49.582;18.342;2024-03-22T09:37:09;97376.17;;;10.11;65.30
85928;BME280;76685;49.582;18.342;2024-03-22T09:39:36;97375.88;;;10.11;65.64
85928;BME280;76685;49.582;18.342;2024-03-22T09:42:05;97377.30;;;10.09;65.72
85928;BME280;76685;49.582;18.342;2024-03-22T09:44:33;97377.00;;;10.09;66.02
85928;BME280;76685;49.582;18.342;2024-03-22T09:47:00;97373.75;;;10.10;66.34
85928;BME280;76685;49.582;18.342;2024-03-22T09:49:27;97377.67;;;10.12;66.47
85928;BME280;76685;49.582;18.342;2024-03-22T09:51:54;97375.14;;;10.16;66.46
85928;BME280;76685;49.582;18.342;2024-03-22T09:54:23;97379.10;;;10.16;66.18
85928;BME280;76685;49.582;18.342;2024-03-22T09:56:52;97377.98;;;10.10;66.23
85928;BME280;76685;49.582;18.342;2024-03-22T09:59:19;97378.44;;;10.07;66.35
85928;BME280;76685;49.582;18.342;2024-03-22T10:01:46;97373.70;;;10.06;66.27
85928;BME280;76685;49.582;18.342;2024-03-22T10:04:13;97368.11;;;10.06;66.29
85928;BME280;76685;49.582;18.342;2024-03-22T10:06:40;97365.61;;;10.07;65.95
85928;BME280;76685;49.582;18.342;2024-03-22T10:09:07;97363.26;;;10.14;66.69
85928;BME280;76685;49.582;18.342;2024-03-22T10:11:35;97361.16;;;10.23;66.11
85928;BME280;76685;49.582;18.342;2024-03-22T10:14:02;97353.65;;;10.31;66.01
85928;BME280;76685;49.582;18.342;2024-03-22T10:16:34;97346.69;;;10.38;64.82
85928;BME280;76685;49.582;18.342;2024-03-22T10:19:06;97349.15;;;10.45;64.68
85928;BME280;76685;49.582;18.342;2024-03-22T10:21:33;97349.32;;;10.49;64.36
85928;BME280;76685;49.582;18.342;2024-03-22T10:24:00;97340.11;;;10.61;64.73
85928;BME280;76685;49.582;18.342;2024-03-22T10:26:29;97342.85;;;10.79;64.68
85928;BME280;76685;49.582;18.342;2024-03-22T10:28:56;97342.95;;;11.01;64.37
85928;BME280;76685;49.582;18.342;2024-03-22T10:31:23;97337.45;;;11.24;63.35
85928;BME280;76685;49.582;18.342;2024-03-22T10:33:50;97336.57;;;11.44;62.83
85928;BME280;76685;49.582;18.342;2024-03-22T10:36:19;97329.78;;;11.68;62.91
85928;BME280;76685;49.582;18.342;2024-03-22T10:38:48;97330.23;;;11.92;62.14
85928;BME280;76685;49.582;18.342;2024-03-22T10:41:18;97328.73;;;12.03;60.85
85928;BME280;76685;49.582;18.342;2024-03-22T10:43:45;97324.71;;;12.05;60.95
85928;BME280;76685;49.582;18.342;2024-03-22T10:46:12;97319.88;;;12.06;59.37
85928;BME280;76685;49.582;18.342;2024-03-22T10:48:41;97316.38;;;12.06;60.37
85928;BME280;76685;49.582;18.342;2024-03-22T10:51:08;97311.90;;;12.18;60.68
85928;BME280;76685;49.582;18.342;2024-03-22T10:53:35;97303.89;;;12.35;60.35
85928;BME280;76685;49.582;18.342;2024-03-22T10:56:04;97298.73;;;12.49;59.35
85928;BME280;76685;49.582;18.342;2024-03-22T10:58:33;97295.59;;;12.64;57.97
85928;BME280;76685;49.582;18.342;2024-03-22T11:01:00;97291.72;;;12.78;57.99
85928;BME280;76685;49.582;18.342;2024-03-22T11:03:29;97288.80;;;12.84;56.97
85928;BME280;76685;49.582;18.342;2024-03-22T11:05:57;97285.75;;;12.85;56.70
85928;BME280;76685;49.582;18.342;2024-03-22T11:08:25;97287.25;;;12.91;57.00
85928;BME280;76685;49.582;18.342;2024-03-22T11:10:53;97281.73;;;12.90;55.96
85928;BME280;76685;49.582;18.342;2024-03-22T11:13:21;97277.52;;;13.01;56.62
85928;BME280;76685;49.582;18.342;2024-03-22T11:15:49;97273.11;;;13.21;55.48
85928;BME280;76685;49.582;18.342;2024-03-22T11:18:16;97260.77;;;13.28;54.40
85928;BME280;76685;49.582;18.342;2024-03-22T11:20:43;97260.52;;;13.23;54.89
85928;BME280;76685;49.582;18.342;2024-03-22T11:23:11;97255.23;;;13.27;54.74
85928;BME280;76685;49.582;18.342;2024-03-22T11:25:38;97258.46;;;13.30;55.59
85928;BME280;76685;49.582;18.342;2024-03-22T11:28:06;97254.42;;;13.38;55.63
85928;BME280;76685;49.582;18.342;2024-03-22T11:30:33;97252.70;;;13.41;54.71
85928;BME280;76685;49.582;18.342;2024-03-22T11:33:01;97246.98;;;13.29;54.72
85928;BME280;76685;49.582;18.342;2024-03-22T11:35:29;97243.33;;;13.18;54.72
85928;BME280;76685;49.582;18.342;2024-03-22T11:37:56;97246.80;;;13.11;54.79
85928;BME280;76685;49.582;18.342;2024-03-22T11:40:25;97239.14;;;13.11;54.95
85928;BME280;76685;49.582;18.342;2024-03-22T11:42:54;97233.92;;;13.21;55.78
85928;BME280;76685;49.582;18.342;2024-03-22T11:45:23;97232.30;;;13.39;55.71
85928;BME280;76685;49.582;18.342;2024-03-22T11:47:50;97231.68;;;13.58;55.92
85928;BME280;76685;49.582;18.342;2024-03-22T11:50:17;97226.76;;;13.63;53.74
85928;BME280;76685;49.582;18.342;2024-03-22T11:52:45;97225.27;;;13.48;54.21
85928;BME280;76685;49.582;18.342;2024-03-22T11:55:15;97224.27;;;13.39;54.07
85928;BME280;76685;49.582;18.342;2024-03-22T11:57:48;97221.83;;;13.44;55.31
85928;BME280;76685;49.582;18.342;2024-03-22T12:00:17;97219.79;;;13.62;55.04
85928;BME280;76685;49.582;18.342;2024-03-22T12:02:45;97218.08;;;13.57;52.86
85928;BME280;76685;49.582;18.342;2024-03-22T12:05:12;97212.04;;;13.57;53.54
85928;BME280;76685;49.582;18.342;2024-03-22T12:07:39;97207.78;;;13.62;54.27
85928;BME280;76685;49.582;18.342;2024-03-22T12:10:07;97206.92;;;13.67;53.82
85928;BME280;76685;49.582;18.342;2024-03-22T12:12:34;97205.25;;;13.58;52.89
85928;BME280;76685;49.582;18.342;2024-03-22T12:15:04;97200.81;;;13.46;53.85
85928;BME280;76685;49.582;18.342;2024-03-22T12:17:31;97202.45;;;13.49;54.76
85928;BME280;76685;49.582;18.342;2024-03-22T12:19:58;97200.00;;;13.56;54.87
85928;BME280;76685;49.582;18.342;2024-03-22T12:22:25;97194.86;;;13.55;54.32
85928;BME280;76685;49.582;18.342;2024-03-22T12:24:52;97192.64;;;13.59;53.67
85928;BME280;76685;49.582;18.342;2024-03-22T12:27:19;97191.42;;;13.58;54.14
85928;BME280;76685;49.582;18.342;2024-03-22T12:29:46;97189.49;;;13.71;54.23
85928;BME280;76685;49.582;18.342;2024-03-22T12:32:14;97181.45;;;13.82;53.28
85928;BME280;76685;49.582;18.342;2024-03-22T12:34:41;97183.27;;;13.71;52.56
85928;BME280;76685;49.582;18.342;2024-03-22T12:37:09;97175.88;;;13.86;53.17
85928;BME280;76685;49.582;18.342;2024-03-22T12:39:36;97173.50;;;14.15;53.07
85928;BME280;76685;49.582;18.342;2024-03-22T12:42:04;97166.71;;;14.38;52.15
85928;BME280;76685;49.582;18.342;2024-03-22T12:44:32;97161.64;;;14.54;52.83
85928;BME280;76685;49.582;18.342;2024-03-22T12:46:59;97160.17;;;14.82;53.31
85928;BME280;76685;49.582;18.342;2024-03-22T12:49:26;97146.85;;;15.14;52.98
85928;BME280;76685;49.582;18.342;2024-03-22T12:51:55;97149.70;;;15.14;51.70
85928;BME280;76685;49.582;18.342;2024-03-22T12:54:22;97150.82;;;15.05;51.35